createdAt,value
2019-06-15T00:00:06.046Z,22.42
2019-06-15T00:02:33.540Z,22.41
2019-06-15T00:05:01.026Z,22.25
2019-06-15T00:07:28.472Z,22.45
2019-06-15T00:09:55.941Z,22.55
2019-06-15T00:12:23.348Z,22.54
2019-06-15T00:14:50.789Z,22.47
2019-06-15T00:17:18.201Z,22.52
2019-06-15T00:19:45.672Z,22.49
2019-06-15T00:22:13.142Z,22.39
2019-06-15T00:24:40.586Z,22.31
2019-06-15T00:27:08.067Z,22.23
2019-06-15T00:29:35.957Z,22.21
2019-06-15T00:32:03.419Z,22.14
2019-06-15T00:34:30.848Z,21.58
2019-06-15T00:36:58.312Z,21.62
2019-06-15T00:39:25.782Z,21.87
2019-06-15T00:41:53.226Z,21.79
2019-06-15T00:44:20.704Z,21.25
2019-06-15T00:46:48.136Z,21.15
2019-06-15T00:49:16.488Z,20.71
2019-06-15T00:51:43.994Z,21.18
2019-06-15T00:54:11.464Z,21.14
2019-06-15T00:56:38.892Z,21.36
2019-06-15T00:59:06.451Z,21.43
2019-06-15T01:01:35.520Z,21.55
2019-06-15T01:04:02.285Z,21.63
2019-06-15T01:06:29.721Z,21.73
2019-06-15T01:08:57.182Z,21.67
2019-06-15T01:11:24.664Z,21.63
2019-06-15T01:13:52.153Z,21.60
2019-06-15T01:16:19.616Z,21.54
2019-06-15T01:18:47.064Z,21.57
2019-06-15T01:21:14.520Z,21.52
2019-06-15T01:23:41.998Z,21.52
2019-06-15T01:26:09.467Z,21.58
2019-06-15T01:28:37.425Z,21.53
2019-06-15T01:31:04.885Z,21.54
2019-06-15T01:33:32.339Z,21.47
2019-06-15T01:35:59.798Z,21.45
2019-06-15T01:38:27.281Z,21.40
2019-06-15T01:40:54.762Z,21.39
2019-06-15T01:43:22.193Z,21.42
2019-06-15T01:45:49.680Z,21.42
2019-06-15T01:48:17.129Z,21.16
2019-06-15T01:50:44.601Z,21.21
2019-06-15T01:53:12.140Z,21.33
2019-06-15T01:55:39.609Z,21.28
2019-06-15T01:58:07.903Z,21.20
2019-06-15T02:00:35.360Z,21.15
2019-06-15T02:03:02.825Z,21.21
2019-06-15T02:05:30.295Z,21.20
2019-06-15T02:07:57.773Z,21.14
2019-06-15T02:10:27.976Z,21.37
2019-06-15T02:12:55.418Z,21.06
2019-06-15T02:15:22.837Z,20.89
2019-06-15T02:17:50.318Z,20.78
2019-06-15T02:20:17.794Z,20.26
2019-06-15T02:22:45.252Z,19.61
2019-06-15T02:25:12.688Z,19.35
2019-06-15T02:27:40.144Z,19.10
2019-06-15T02:30:08.584Z,19.21
2019-06-15T02:32:36.043Z,19.75
2019-06-15T02:35:05.013Z,20.11
2019-06-15T02:37:32.460Z,19.85
2019-06-15T02:39:59.905Z,19.15
2019-06-15T02:42:27.369Z,19.38
2019-06-15T02:44:54.870Z,19.74
2019-06-15T02:47:22.327Z,19.59
2019-06-15T02:49:49.781Z,19.32
2019-06-15T02:52:17.241Z,19.14
2019-06-15T02:54:44.698Z,19.17
2019-06-15T02:57:14.105Z,19.02
2019-06-15T02:59:41.617Z,19.20
2019-06-15T03:02:09.277Z,19.25
2019-06-15T03:04:36.746Z,19.28
2019-06-15T03:07:04.197Z,19.02
2019-06-15T03:09:31.686Z,19.33
2019-06-15T03:11:59.143Z,19.73
2019-06-15T03:14:26.596Z,19.93
2019-06-15T03:16:54.044Z,19.41
2019-06-15T03:19:21.504Z,19.42
2019-06-15T03:21:49.003Z,19.38
2019-06-15T03:24:16.458Z,19.57
2019-06-15T03:26:43.892Z,19.50
2019-06-15T03:29:12.116Z,19.58
2019-06-15T03:31:39.815Z,19.94
2019-06-15T03:34:07.290Z,20.11
2019-06-15T03:36:34.744Z,20.21
2019-06-15T03:39:02.248Z,20.27
2019-06-15T03:41:29.673Z,20.33
2019-06-15T03:43:57.139Z,20.38
2019-06-15T03:46:24.608Z,20.43
2019-06-15T03:48:52.109Z,20.45
2019-06-15T03:51:19.916Z,20.44
2019-06-15T03:53:47.377Z,20.51
2019-06-15T03:56:21.433Z,20.43
2019-06-15T03:58:42.295Z,20.16
2019-06-15T04:01:11.015Z,19.84
2019-06-15T04:03:38.325Z,19.42
2019-06-15T04:06:05.754Z,19.25
2019-06-15T04:08:33.215Z,19.47
2019-06-15T04:11:00.662Z,19.45
2019-06-15T04:13:28.088Z,19.41
2019-06-15T04:15:55.530Z,19.16
2019-06-15T04:18:22.992Z,19.03
2019-06-15T04:20:50.489Z,18.49
2019-06-15T04:23:17.931Z,18.54
2019-06-15T04:25:45.360Z,18.61
2019-06-15T04:28:12.837Z,18.56
2019-06-15T04:30:41.310Z,18.49
2019-06-15T04:33:08.751Z,18.54
2019-06-15T04:35:36.229Z,18.83
2019-06-15T04:38:03.662Z,18.94
2019-06-15T04:40:31.103Z,19.12
2019-06-15T04:42:58.552Z,19.14
2019-06-15T04:45:25.996Z,19.20
2019-06-15T04:47:53.432Z,19.40
2019-06-15T04:50:20.891Z,19.33
2019-06-15T04:52:48.364Z,19.41
2019-06-15T04:55:15.922Z,19.36
2019-06-15T04:57:43.359Z,19.49
2019-06-15T05:00:10.813Z,19.51
2019-06-15T05:02:38.275Z,19.37
2019-06-15T05:05:05.727Z,19.21
2019-06-15T05:07:33.198Z,18.95
2019-06-15T05:10:00.651Z,18.92
2019-06-15T05:12:28.153Z,18.66
2019-06-15T05:14:55.594Z,18.67
2019-06-15T05:17:23.066Z,18.60
2019-06-15T05:19:50.526Z,18.79
2019-06-15T05:22:17.990Z,18.67
2019-06-15T05:24:45.443Z,18.79
2019-06-15T05:27:13.511Z,18.99
2019-06-15T05:29:41.010Z,18.89
2019-06-15T05:32:08.485Z,19.08
2019-06-15T05:34:35.955Z,18.97
2019-06-15T05:37:03.411Z,18.89
2019-06-15T05:39:30.883Z,19.15
2019-06-15T05:41:58.352Z,19.14
2019-06-15T05:44:25.850Z,19.03
2019-06-15T05:46:53.312Z,18.79
2019-06-15T05:49:20.771Z,18.94
2019-06-15T05:51:48.233Z,19.12
2019-06-15T05:54:15.662Z,19.24
2019-06-15T05:56:43.120Z,19.16
2019-06-15T05:59:10.570Z,18.75
2019-06-15T06:01:38.034Z,18.98
2019-06-15T06:04:05.486Z,18.99
2019-06-15T06:06:32.942Z,19.10
2019-06-15T06:09:00.380Z,18.76
2019-06-15T06:11:27.829Z,18.74
2019-06-15T06:13:55.285Z,18.79
2019-06-15T06:16:22.743Z,18.76
2019-06-15T06:18:50.194Z,18.79
2019-06-15T06:21:17.679Z,18.83
2019-06-15T06:23:45.152Z,18.81
2019-06-15T06:26:13.620Z,18.45
2019-06-15T06:28:54.102Z,18.91
2019-06-15T06:31:08.586Z,18.69
2019-06-15T06:33:36.055Z,18.72
2019-06-15T06:36:06.213Z,18.60
2019-06-15T06:38:30.994Z,18.60
2019-06-15T06:40:58.444Z,18.44
2019-06-15T06:43:25.932Z,18.54
2019-06-15T06:45:53.393Z,18.62
2019-06-15T06:48:20.845Z,18.49
2019-06-15T06:50:48.319Z,18.48
2019-06-15T06:53:15.796Z,18.66
2019-06-15T06:55:44.286Z,18.42
2019-06-15T06:58:11.755Z,18.26
2019-06-15T07:00:39.193Z,18.20
2019-06-15T07:03:06.691Z,18.19
2019-06-15T07:05:34.147Z,18.41
2019-06-15T07:08:01.602Z,18.24
2019-06-15T07:10:29.066Z,18.06
2019-06-15T07:12:56.513Z,18.29
2019-06-15T07:15:23.988Z,18.28
2019-06-15T07:17:52.626Z,18.39
2019-06-15T07:20:22.092Z,17.98
2019-06-15T07:22:50.669Z,18.09
2019-06-15T07:25:19.365Z,18.26
2019-06-15T07:27:47.944Z,18.43
2019-06-15T07:30:17.342Z,18.40
2019-06-15T07:32:46.031Z,18.23
2019-06-15T07:35:13.607Z,18.30
2019-06-15T07:37:41.047Z,18.35
2019-06-15T07:40:08.489Z,18.48
2019-06-15T07:42:39.109Z,18.27
2019-06-15T07:45:03.514Z,18.49
2019-06-15T07:47:31.031Z,18.73
2019-06-15T07:49:58.517Z,18.52
2019-06-15T07:52:25.987Z,18.84
2019-06-15T07:54:53.503Z,18.83
2019-06-15T07:57:20.974Z,18.95
2019-06-15T07:59:48.426Z,19.06
2019-06-15T08:02:15.889Z,18.94
2019-06-15T08:04:43.361Z,18.93
2019-06-15T08:07:10.864Z,18.94
2019-06-15T08:09:38.316Z,19.34
2019-06-15T08:12:05.822Z,19.38
2019-06-15T08:14:33.275Z,19.49
2019-06-15T08:17:00.713Z,19.45
2019-06-15T08:19:28.164Z,19.59
2019-06-15T08:21:55.610Z,19.54
2019-06-15T08:24:23.087Z,19.65
2019-06-15T08:26:50.516Z,19.85
2019-06-15T08:29:18.883Z,19.81
2019-06-15T08:31:46.380Z,19.86
2019-06-15T08:34:13.838Z,19.91
2019-06-15T08:36:41.279Z,19.86
2019-06-15T08:39:08.730Z,19.87
2019-06-15T08:41:36.156Z,20.01
2019-06-15T08:44:03.617Z,20.24
2019-06-15T08:46:32.427Z,20.17
2019-06-15T08:49:00.304Z,20.14
2019-06-15T08:51:27.785Z,20.11
2019-06-15T08:53:55.276Z,20.14
2019-06-15T08:56:22.733Z,20.01
2019-06-15T08:58:55.622Z,20.15
2019-06-15T09:01:17.662Z,19.97
2019-06-15T09:03:45.134Z,19.63
2019-06-15T09:06:12.564Z,19.62
2019-06-15T09:08:40.208Z,19.77
2019-06-15T09:11:07.676Z,19.67
2019-06-15T09:13:35.648Z,19.65
2019-06-15T09:16:03.162Z,19.46
2019-06-15T09:18:30.635Z,19.22
2019-06-15T09:20:58.089Z,19.14
2019-06-15T09:23:25.566Z,19.26
2019-06-15T09:25:53.033Z,19.03
2019-06-15T09:28:20.509Z,19.00
2019-06-15T09:30:48.453Z,18.91
2019-06-15T09:33:16.130Z,18.89
2019-06-15T09:35:43.623Z,18.92
2019-06-15T09:38:11.086Z,18.95
2019-06-15T09:40:38.591Z,18.85
2019-06-15T09:43:06.024Z,19.15
2019-06-15T09:45:33.467Z,19.15
2019-06-15T09:48:01.070Z,19.14
2019-06-15T09:50:28.593Z,19.25
2019-06-15T09:52:58.057Z,19.01
2019-06-15T09:55:25.986Z,19.03
2019-06-15T09:57:53.456Z,19.08
2019-06-15T10:00:20.950Z,19.38
2019-06-15T10:02:48.421Z,19.37
2019-06-15T10:05:15.894Z,19.10
2019-06-15T10:07:43.397Z,19.07
2019-06-15T10:10:11.187Z,19.07
2019-06-15T10:12:38.704Z,18.92
2019-06-15T10:15:06.221Z,19.07
2019-06-15T10:17:33.675Z,19.10
2019-06-15T10:20:01.167Z,19.19
2019-06-15T10:22:28.630Z,19.05
2019-06-15T10:24:56.546Z,19.47
2019-06-15T10:27:24.016Z,19.42
2019-06-15T10:29:51.473Z,19.09
2019-06-15T10:32:19.032Z,19.47
2019-06-15T10:34:46.477Z,19.39
2019-06-15T10:37:13.902Z,19.29
2019-06-15T10:39:41.377Z,19.39
2019-06-15T10:42:08.842Z,19.30
2019-06-15T10:44:36.266Z,19.19
2019-06-15T10:47:03.716Z,19.19
2019-06-15T10:49:31.175Z,19.42
2019-06-15T10:51:58.631Z,19.64
2019-06-15T10:54:27.091Z,19.50
2019-06-15T10:56:54.559Z,19.67
2019-06-15T10:59:22.018Z,19.94
2019-06-15T11:01:49.517Z,20.24
2019-06-15T11:04:16.978Z,20.17
2019-06-15T11:06:44.467Z,20.04
2019-06-15T11:09:12.292Z,20.43
2019-06-15T11:11:39.741Z,20.54
2019-06-15T11:14:07.199Z,20.47
2019-06-15T11:16:34.667Z,20.74
2019-06-15T11:19:02.158Z,20.83
2019-06-15T11:21:29.609Z,20.81
2019-06-15T11:23:57.102Z,21.01
2019-06-15T11:26:24.644Z,21.06
2019-06-15T11:28:52.107Z,21.27
2019-06-15T11:31:19.542Z,21.29
2019-06-15T11:33:46.996Z,21.22
2019-06-15T11:36:14.439Z,21.59
2019-06-15T11:38:42.772Z,21.53
2019-06-15T11:41:10.313Z,21.48
2019-06-15T11:43:37.776Z,21.13
2019-06-15T11:46:05.282Z,21.28
2019-06-15T11:48:33.400Z,21.32
2019-06-15T11:51:00.876Z,21.39
2019-06-15T11:53:28.892Z,21.51
2019-06-15T11:55:56.339Z,21.29
2019-06-15T11:58:23.843Z,20.79
2019-06-15T12:00:52.598Z,21.24
2019-06-15T12:03:20.149Z,21.44
2019-06-15T12:05:47.641Z,21.72
2019-06-15T12:08:15.121Z,21.70
2019-06-15T12:10:42.628Z,21.53
2019-06-15T12:13:11.352Z,21.40
2019-06-15T12:15:38.917Z,21.46
2019-06-15T12:18:06.369Z,21.22
2019-06-15T12:20:33.844Z,21.89
2019-06-15T12:23:01.307Z,22.05
2019-06-15T12:25:29.619Z,22.21
2019-06-15T12:27:57.083Z,22.48
2019-06-15T12:30:25.356Z,22.24
2019-06-15T12:32:52.796Z,21.58
2019-06-15T12:35:20.232Z,21.79
2019-06-15T12:37:47.663Z,21.61
2019-06-15T12:40:15.293Z,21.64
2019-06-15T12:42:42.656Z,21.31
2019-06-15T12:45:10.094Z,21.69
2019-06-15T12:47:37.548Z,21.51
2019-06-15T12:50:05.669Z,21.69
2019-06-15T12:52:33.128Z,21.52
2019-06-15T12:55:00.615Z,21.91
2019-06-15T12:57:28.767Z,22.04
2019-06-15T12:59:56.327Z,22.04
2019-06-15T13:02:23.795Z,22.01
2019-06-15T13:04:51.257Z,22.20
2019-06-15T13:07:18.702Z,21.98
2019-06-15T13:09:46.144Z,21.78
2019-06-15T13:12:13.591Z,21.90
2019-06-15T13:14:41.087Z,21.77
2019-06-15T13:17:08.526Z,21.92
2019-06-15T13:19:35.977Z,22.16
2019-06-15T13:22:06.287Z,22.32
2019-06-15T13:24:30.978Z,22.47
2019-06-15T13:26:58.476Z,22.32
2019-06-15T13:29:25.914Z,22.23
2019-06-15T13:31:53.370Z,21.83
2019-06-15T13:34:20.799Z,22.27
2019-06-15T13:36:48.248Z,22.01
2019-06-15T13:39:15.683Z,22.33
2019-06-15T13:41:43.138Z,22.56
2019-06-15T13:44:10.658Z,22.60
2019-06-15T13:46:38.153Z,22.26
2019-06-15T13:49:05.607Z,22.53
2019-06-15T13:51:33.145Z,22.86
2019-06-15T13:54:01.547Z,22.83
2019-06-15T13:56:29.020Z,23.19
2019-06-15T13:58:56.539Z,22.99
2019-06-15T14:01:33.647Z,22.99
2019-06-15T14:03:51.446Z,22.56
2019-06-15T14:06:18.903Z,22.90
2019-06-15T14:08:46.355Z,22.93
2019-06-15T14:11:13.835Z,22.98
2019-06-15T14:13:41.280Z,23.19
2019-06-15T14:16:08.715Z,22.84
2019-06-15T14:18:36.185Z,23.15
2019-06-15T14:21:03.642Z,22.82
2019-06-15T14:23:32.122Z,22.39
2019-06-15T14:25:59.564Z,22.71
2019-06-15T14:28:27.058Z,22.87
2019-06-15T14:30:54.485Z,22.61
2019-06-15T14:33:21.930Z,22.91
2019-06-15T14:35:49.384Z,23.16
2019-06-15T14:38:16.819Z,23.24
2019-06-15T14:40:44.312Z,23.38
2019-06-15T14:43:12.302Z,23.63
2019-06-15T14:45:39.727Z,23.61
2019-06-15T14:48:07.182Z,23.41
2019-06-15T14:50:34.638Z,23.20
2019-06-15T14:53:02.850Z,23.56
2019-06-15T14:55:30.299Z,23.40
2019-06-15T14:57:57.720Z,23.50
2019-06-15T15:00:25.184Z,23.15
2019-06-15T15:02:52.630Z,23.27
2019-06-15T15:05:20.082Z,23.17
2019-06-15T15:07:47.505Z,23.16
2019-06-15T15:10:16.315Z,23.18
2019-06-15T15:12:42.429Z,22.92
2019-06-15T15:15:09.864Z,22.64
2019-06-15T15:17:37.426Z,22.73
2019-06-15T15:20:07.164Z,22.44
2019-06-15T15:22:33.326Z,22.96
2019-06-15T15:25:00.820Z,22.60
2019-06-15T15:27:28.277Z,22.59
2019-06-15T15:29:57.093Z,22.36
2019-06-15T15:32:27.081Z,22.53
2019-06-15T15:34:50.674Z,22.29
2019-06-15T15:37:18.131Z,22.14
2019-06-15T15:39:46.943Z,22.20
2019-06-15T15:42:13.061Z,22.35
2019-06-15T15:44:40.536Z,22.55
2019-06-15T15:47:08.739Z,22.20
2019-06-15T15:49:36.712Z,22.51
2019-06-15T15:52:03.888Z,22.64
2019-06-15T15:54:31.335Z,22.86
2019-06-15T15:56:58.749Z,22.94
2019-06-15T15:59:26.183Z,23.03
2019-06-15T16:01:56.513Z,22.90
2019-06-15T16:04:21.993Z,23.25
2019-06-15T16:06:49.447Z,23.35
2019-06-15T16:09:17.090Z,23.65
2019-06-15T16:11:46.321Z,23.68
2019-06-15T16:14:11.906Z,23.56
2019-06-15T16:16:39.359Z,23.38
2019-06-15T16:19:06.798Z,23.67
2019-06-15T16:21:36.764Z,23.80
2019-06-15T16:24:02.127Z,23.98
2019-06-15T16:26:29.635Z,23.38
2019-06-15T16:28:57.048Z,24.05
2019-06-15T16:31:26.621Z,24.23
2019-06-15T16:33:51.964Z,24.53
2019-06-15T16:36:19.399Z,24.22
2019-06-15T16:38:47.115Z,24.21
2019-06-15T16:41:14.352Z,24.19
2019-06-15T16:43:41.851Z,24.26
2019-06-15T16:46:09.341Z,23.98
2019-06-15T16:48:36.802Z,24.33
2019-06-15T16:51:06.742Z,24.40
2019-06-15T16:53:32.561Z,23.70
2019-06-15T16:56:00.024Z,23.41
2019-06-15T16:58:27.486Z,23.87
2019-06-15T17:00:57.128Z,24.16
2019-06-15T17:03:26.159Z,23.90
2019-06-15T17:05:49.903Z,23.65
2019-06-15T17:08:17.451Z,23.93
2019-06-15T17:10:44.834Z,23.63
2019-06-15T17:13:12.317Z,23.77
2019-06-15T17:15:39.738Z,23.72
2019-06-15T17:18:07.188Z,23.60
2019-06-15T17:20:46.475Z,23.88
2019-06-15T17:23:12.406Z,23.58
2019-06-15T17:25:39.839Z,23.71
2019-06-15T17:28:07.324Z,23.50
2019-06-15T17:30:36.952Z,23.61
2019-06-15T17:33:04.914Z,23.45
2019-06-15T17:35:29.699Z,23.58
2019-06-15T17:37:57.166Z,23.38
2019-06-15T17:40:26.764Z,23.67
2019-06-15T17:42:52.107Z,23.61
2019-06-15T17:45:19.532Z,23.51
2019-06-15T17:47:47.017Z,23.43
2019-06-15T17:50:16.945Z,23.44
2019-06-15T17:52:41.915Z,23.47
2019-06-15T17:55:09.351Z,23.36
2019-06-15T17:57:36.797Z,23.41
2019-06-15T18:00:07.210Z,23.41
2019-06-15T18:02:34.678Z,23.00
2019-06-15T18:05:02.115Z,23.20
2019-06-15T18:07:29.579Z,23.12
2019-06-15T18:09:57.022Z,23.11
2019-06-15T18:12:26.819Z,22.84
2019-06-15T18:14:51.959Z,22.86
2019-06-15T18:17:19.410Z,23.21
2019-06-15T18:19:47.153Z,22.74
2019-06-15T18:22:16.783Z,22.92
2019-06-15T18:24:42.637Z,23.07
2019-06-15T18:27:10.099Z,22.91
2019-06-15T18:29:37.549Z,22.93
2019-06-15T18:32:06.432Z,22.83
2019-06-15T18:34:32.441Z,22.94
2019-06-15T18:36:59.911Z,22.80
2019-06-15T18:39:27.386Z,22.93
2019-06-15T18:41:55.996Z,23.08
2019-06-15T18:44:22.343Z,22.72
2019-06-15T18:46:49.788Z,22.55
2019-06-15T18:49:17.252Z,22.95
2019-06-15T18:51:46.099Z,22.91
2019-06-15T18:54:12.102Z,22.81
2019-06-15T18:56:39.583Z,23.09
2019-06-15T18:59:07.674Z,23.20
2019-06-15T19:01:37.390Z,23.06
2019-06-15T19:04:02.576Z,23.04
2019-06-15T19:06:30.053Z,23.03
2019-06-15T19:08:57.584Z,22.93
2019-06-15T19:11:27.202Z,22.76
2019-06-15T19:13:52.450Z,22.97
2019-06-15T19:16:19.900Z,22.76
2019-06-15T19:18:47.386Z,22.61
2019-06-15T19:21:17.020Z,22.41
2019-06-15T19:23:42.331Z,22.47
2019-06-15T19:26:09.776Z,22.46
2019-06-15T19:28:38.217Z,22.31
2019-06-15T19:31:06.451Z,22.18
2019-06-15T19:33:33.149Z,22.37
2019-06-15T19:36:00.589Z,22.34
2019-06-15T19:38:28.067Z,22.07
2019-06-15T19:40:56.599Z,22.23
2019-06-15T19:43:23.066Z,21.92
2019-06-15T19:45:50.514Z,21.96
2019-06-15T19:48:17.976Z,22.01
2019-06-15T19:50:46.269Z,21.90
2019-06-15T19:53:12.913Z,21.68
2019-06-15T19:55:40.378Z,21.53
2019-06-15T19:58:07.859Z,21.46
2019-06-15T20:00:36.473Z,21.18
2019-06-15T20:03:02.788Z,21.10
2019-06-15T20:05:30.244Z,21.10
2019-06-15T20:07:57.671Z,21.15
2019-06-15T20:10:26.621Z,21.29
2019-06-15T20:12:52.566Z,21.39
2019-06-15T20:15:20.043Z,21.39
2019-06-15T20:17:47.506Z,20.99
2019-06-15T20:20:14.998Z,20.95
2019-06-15T20:22:42.436Z,20.95
2019-06-15T20:25:09.873Z,20.73
2019-06-15T20:27:37.771Z,20.97
2019-06-15T20:30:06.289Z,20.99
2019-06-15T20:32:32.922Z,21.18
2019-06-15T20:35:15.259Z,21.26
2019-06-15T20:37:28.446Z,21.41
2019-06-15T20:39:56.150Z,21.41
2019-06-15T20:42:23.403Z,21.62
2019-06-15T20:44:50.866Z,21.74
2019-06-15T20:47:18.318Z,21.64
2019-06-15T20:49:46.406Z,21.72
2019-06-15T20:52:13.252Z,21.82
2019-06-15T20:54:40.706Z,21.81
2019-06-15T20:57:08.147Z,21.76
2019-06-15T20:59:37.002Z,21.78
2019-06-15T21:02:03.072Z,21.19
2019-06-15T21:04:30.523Z,21.17
2019-06-15T21:06:57.960Z,21.13
2019-06-15T21:09:27.510Z,21.27
2019-06-15T21:11:54.742Z,21.26
2019-06-15T21:14:22.246Z,21.22
2019-06-15T21:16:49.705Z,20.69
2019-06-15T21:19:17.138Z,20.76
2019-06-15T21:21:47.071Z,20.43
2019-06-15T21:24:12.044Z,20.59
2019-06-15T21:26:39.503Z,20.66
2019-06-15T21:29:06.966Z,20.55
2019-06-15T21:31:36.611Z,20.33
2019-06-15T21:34:01.889Z,20.46
2019-06-15T21:36:29.330Z,20.36
2019-06-15T21:38:56.776Z,20.27
2019-06-15T21:41:26.152Z,20.27
2019-06-15T21:43:51.711Z,20.33
2019-06-15T21:46:19.159Z,20.42
2019-06-15T21:48:46.962Z,20.24
2019-06-15T21:51:16.427Z,20.22
2019-06-15T21:53:41.575Z,20.17
2019-06-15T21:56:08.999Z,20.18
2019-06-15T21:58:36.852Z,20.13
2019-06-15T22:01:06.259Z,20.39
2019-06-15T22:03:33.362Z,20.71
2019-06-15T22:06:03.184Z,20.40
2019-06-15T22:08:28.288Z,20.45
2019-06-15T22:10:55.779Z,20.66
2019-06-15T22:13:23.220Z,20.47
2019-06-15T22:15:50.682Z,20.84
2019-06-15T22:18:18.159Z,20.93
2019-06-15T22:20:47.036Z,20.85
2019-06-15T22:23:13.071Z,20.95
2019-06-15T22:25:40.514Z,20.77
2019-06-15T22:28:07.974Z,20.94
2019-06-15T22:30:36.690Z,20.81
2019-06-15T22:33:02.923Z,20.46
2019-06-15T22:35:30.398Z,20.24
2019-06-15T22:37:57.935Z,20.27
2019-06-15T22:40:25.415Z,19.97
2019-06-15T22:42:52.850Z,19.86
2019-06-15T22:45:21.291Z,19.67
2019-06-15T22:47:48.719Z,19.55
2019-06-15T22:50:16.253Z,19.68
2019-06-15T22:52:43.691Z,19.79
2019-06-15T22:55:11.170Z,20.05
2019-06-15T22:57:38.611Z,20.35
2019-06-15T23:00:07.578Z,19.82
2019-06-15T23:02:33.963Z,20.03
2019-06-15T23:05:01.439Z,19.51
2019-06-15T23:07:30.333Z,19.48
2019-06-15T23:09:57.880Z,19.64
2019-06-15T23:12:25.330Z,19.68
2019-06-15T23:14:52.773Z,19.60
2019-06-15T23:17:20.195Z,19.91
2019-06-15T23:19:47.648Z,20.07
2019-06-15T23:22:17.163Z,19.87
2019-06-15T23:24:43.288Z,19.77
2019-06-15T23:27:10.759Z,19.57
2019-06-15T23:29:39.428Z,19.66
2019-06-15T23:32:06.872Z,19.54
2019-06-15T23:34:34.342Z,19.48
2019-06-15T23:37:01.810Z,19.42
2019-06-15T23:39:29.231Z,19.57
2019-06-15T23:41:57.337Z,19.80
2019-06-15T23:44:26.837Z,19.61
2019-06-15T23:46:52.231Z,19.84
2019-06-15T23:49:19.703Z,20.05
2019-06-15T23:51:47.310Z,20.12
2019-06-15T23:54:14.723Z,20.27
2019-06-15T23:56:42.189Z,19.86
2019-06-15T23:59:09.642Z,19.84
